createdAt,value
2019-03-16T00:00:13.300Z,6.37
2019-03-16T00:05:23.489Z,10.60
2019-03-16T00:10:32.868Z,10.07
2019-03-16T00:15:40.040Z,9.87
2019-03-16T00:20:48.321Z,14.67
2019-03-16T00:25:55.873Z,15.20
2019-03-16T00:31:03.168Z,7.13
2019-03-16T00:36:12.272Z,10.83
2019-03-16T00:41:23.208Z,10.33
2019-03-16T00:46:31.169Z,9.30
2019-03-16T00:51:38.898Z,8.77
2019-03-16T00:56:46.779Z,18.27
2019-03-16T01:01:55.645Z,13.67
2019-03-16T01:07:02.872Z,9.17
2019-03-16T01:12:11.578Z,16.83
2019-03-16T01:17:19.247Z,15.77
2019-03-16T01:22:28.114Z,10.30
2019-03-16T01:27:36.366Z,12.10
2019-03-16T01:32:45.724Z,18.23
2019-03-16T01:37:53.373Z,14.20
2019-03-16T01:43:00.336Z,16.73
2019-03-16T01:48:07.488Z,22.53
2019-03-16T01:53:16.610Z,13.77
2019-03-16T01:58:23.671Z,14.13
2019-03-16T02:03:30.346Z,21.47
2019-03-16T02:08:36.682Z,15.67
2019-03-16T02:13:42.599Z,20.43
2019-03-16T02:18:51.250Z,16.47
2019-03-16T02:23:57.993Z,16.20
2019-03-16T02:29:07.321Z,15.53
2019-03-16T02:34:15.305Z,16.33
2019-03-16T02:39:23.178Z,14.93
2019-03-16T02:44:31.759Z,17.00
2019-03-16T02:49:40.915Z,23.90
2019-03-16T02:54:48.091Z,16.30
2019-03-16T02:59:56.906Z,19.00
2019-03-16T03:05:03.574Z,17.17
2019-03-16T03:10:11.829Z,10.63
2019-03-16T03:15:18.089Z,15.77
2019-03-16T03:20:26.269Z,19.23
2019-03-16T03:25:33.358Z,14.53
2019-03-16T03:30:41.265Z,23.43
2019-03-16T03:35:48.429Z,17.33
2019-03-16T03:40:55.163Z,15.37
2019-03-16T03:46:02.399Z,13.20
2019-03-16T03:51:09.780Z,21.93
2019-03-16T03:56:17.039Z,25.93
2019-03-16T04:01:23.500Z,18.47
2019-03-16T04:06:29.720Z,16.07
2019-03-16T04:11:38.540Z,21.03
2019-03-16T04:16:46.948Z,18.83
2019-03-16T04:21:56.328Z,18.93
2019-03-16T04:27:16.093Z,21.13
2019-03-16T04:32:16.841Z,10.70
2019-03-16T04:37:25.325Z,21.13
2019-03-16T04:42:33.768Z,15.33
2019-03-16T04:47:40.925Z,17.30
2019-03-16T04:52:51.020Z,15.67
2019-03-16T04:57:57.064Z,13.07
2019-03-16T05:03:08.170Z,15.00
2019-03-16T05:08:16.489Z,17.43
2019-03-16T05:13:24.734Z,13.63
2019-03-16T05:18:32.883Z,14.30
2019-03-16T05:23:42.182Z,17.07
2019-03-16T05:28:49.465Z,16.87
2019-03-16T05:33:56.113Z,13.30
2019-03-16T05:39:03.502Z,14.67
2019-03-16T05:44:09.423Z,15.50
2019-03-16T05:49:16.003Z,14.27
2019-03-16T05:54:21.555Z,15.80
2019-03-16T05:59:27.318Z,17.70
2019-03-16T06:04:33.768Z,15.60
2019-03-16T06:09:39.401Z,17.10
2019-03-16T06:14:44.943Z,19.40
2019-03-16T06:19:50.534Z,17.03
2019-03-16T06:24:56.510Z,27.23
2019-03-16T06:30:02.644Z,16.47
2019-03-16T06:35:23.408Z,12.87
2019-03-16T06:40:17.125Z,11.90
2019-03-16T06:45:23.920Z,19.23
2019-03-16T06:50:30.061Z,15.63
2019-03-16T06:55:37.263Z,21.27
2019-03-16T07:00:43.059Z,21.70
2019-03-16T07:05:48.853Z,12.57
2019-03-16T07:10:54.637Z,14.70
2019-03-16T07:16:00.281Z,17.23
2019-03-16T07:21:07.602Z,16.87
2019-03-16T07:26:15.151Z,15.77
2019-03-16T07:31:21.334Z,21.97
2019-03-16T07:36:26.963Z,15.63
2019-03-16T07:41:34.505Z,15.43
2019-03-16T07:46:40.157Z,16.70
2019-03-16T07:51:46.269Z,17.47
2019-03-16T07:56:53.449Z,16.30
2019-03-16T08:01:59.328Z,19.53
2019-03-16T08:07:06.746Z,14.43
2019-03-16T08:12:14.005Z,17.43
2019-03-16T08:17:20.217Z,14.23
2019-03-16T08:22:27.398Z,17.57
2019-03-16T08:27:33.317Z,15.90
2019-03-16T08:32:40.510Z,20.10
2019-03-16T08:37:47.059Z,19.37
2019-03-16T08:42:52.721Z,22.53
2019-03-16T08:48:02.662Z,18.77
2019-03-16T08:53:10.190Z,23.13
2019-03-16T08:58:16.264Z,26.90
2019-03-16T09:03:22.499Z,13.07
2019-03-16T09:08:29.091Z,15.73
2019-03-16T09:13:35.518Z,19.40
2019-03-16T09:18:41.340Z,11.73
2019-03-16T09:23:47.382Z,17.70
2019-03-16T09:29:00.081Z,16.50
2019-03-16T09:34:03.644Z,20.97
2019-03-16T09:39:10.393Z,16.60
2019-03-16T09:44:16.751Z,19.10
2019-03-16T09:49:22.781Z,14.70
2019-03-16T09:54:29.606Z,14.73
2019-03-16T09:59:36.116Z,15.67
2019-03-16T10:04:43.441Z,15.00
2019-03-16T10:09:52.795Z,12.53
2019-03-16T10:14:59.369Z,12.93
2019-03-16T10:20:14.487Z,17.13
2019-03-16T10:25:21.017Z,15.87
2019-03-16T10:30:27.104Z,20.63
2019-03-16T10:35:34.534Z,14.13
2019-03-16T10:40:40.522Z,14.17
2019-03-16T10:45:46.174Z,13.20
2019-03-16T10:50:52.451Z,7.83
2019-03-16T10:56:00.238Z,11.23
2019-03-16T11:01:05.887Z,12.03
2019-03-16T11:06:11.907Z,10.33
2019-03-16T11:11:17.673Z,11.93
2019-03-16T11:16:23.616Z,13.30
2019-03-16T11:21:30.758Z,12.83
2019-03-16T11:26:38.477Z,9.87
2019-03-16T11:31:44.527Z,9.37
2019-03-16T11:36:52.213Z,9.63
2019-03-16T11:41:58.250Z,6.00
2019-03-16T11:47:04.440Z,8.43
2019-03-16T11:52:10.896Z,6.70
2019-03-16T11:57:17.672Z,7.63
2019-03-16T12:02:23.891Z,9.33
2019-03-16T12:07:29.682Z,6.40
2019-03-16T12:12:36.381Z,8.00
2019-03-16T12:17:45.709Z,4.30
2019-03-16T12:22:54.573Z,8.70
2019-03-16T12:28:01.329Z,6.63
2019-03-16T12:33:07.173Z,4.60
2019-03-16T12:38:12.839Z,9.53
2019-03-16T12:43:18.789Z,7.30
2019-03-16T12:48:25.384Z,5.37
2019-03-16T12:53:30.935Z,11.30
2019-03-16T12:58:37.849Z,5.73
2019-03-16T13:03:43.410Z,4.33
2019-03-16T13:08:49.039Z,7.13
2019-03-16T13:13:54.808Z,8.53
2019-03-16T13:19:00.420Z,5.73
2019-03-16T13:24:06.055Z,7.37
2019-03-16T13:29:11.949Z,8.30
2019-03-16T13:34:17.519Z,6.10
2019-03-16T13:39:25.022Z,2.97
2019-03-16T13:44:32.199Z,2.63
2019-03-16T13:49:37.780Z,3.87
2019-03-16T13:54:43.524Z,3.37
2019-03-16T13:59:49.609Z,4.83
2019-03-16T14:04:56.288Z,1.57
2019-03-16T14:10:05.160Z,2.77
2019-03-16T14:15:11.240Z,1.87
2019-03-16T14:20:17.630Z,2.33
2019-03-16T14:25:23.812Z,2.60
2019-03-16T14:30:40.855Z,3.83
2019-03-16T14:35:39.976Z,2.30
2019-03-16T14:40:45.752Z,3.50
2019-03-16T14:45:52.154Z,3.47
2019-03-16T14:50:57.941Z,2.97
2019-03-16T14:56:03.829Z,3.50
2019-03-16T15:01:13.299Z,3.67
2019-03-16T15:06:23.207Z,3.83
2019-03-16T15:11:30.655Z,4.90
2019-03-16T15:16:38.169Z,4.10
2019-03-16T15:21:43.928Z,4.13
2019-03-16T15:26:49.645Z,6.57
2019-03-16T15:31:56.519Z,17.57
2019-03-16T15:37:02.990Z,3.00
2019-03-16T15:42:08.912Z,2.93
2019-03-16T15:47:16.115Z,4.70
2019-03-16T15:52:21.821Z,3.33
2019-03-16T15:57:27.981Z,4.27
2019-03-16T16:02:34.506Z,3.20
2019-03-16T16:07:41.354Z,3.83
2019-03-16T16:12:46.913Z,3.87
2019-03-16T16:17:52.745Z,4.60
2019-03-16T16:22:59.095Z,3.27
2019-03-16T16:28:04.736Z,3.70
2019-03-16T16:33:10.568Z,4.13
2019-03-16T16:38:16.688Z,4.43
2019-03-16T16:43:22.550Z,3.97
2019-03-16T16:48:28.526Z,4.97
2019-03-16T16:53:34.825Z,5.00
2019-03-16T16:58:41.114Z,5.87
2019-03-16T17:03:48.965Z,6.13
2019-03-16T17:08:54.959Z,5.90
2019-03-16T17:14:02.370Z,21.20
2019-03-16T17:19:10.317Z,15.10
2019-03-16T17:24:18.026Z,6.83
2019-03-16T17:29:23.785Z,7.07
2019-03-16T17:34:30.630Z,10.10
2019-03-16T17:39:37.381Z,9.00
2019-03-16T17:44:43.517Z,9.40
2019-03-16T17:49:49.104Z,11.07
2019-03-16T17:54:54.933Z,11.30
2019-03-16T18:00:00.936Z,10.90
2019-03-16T18:05:09.396Z,11.50
2019-03-16T18:10:16.626Z,13.33
2019-03-16T18:15:22.858Z,13.70
2019-03-16T18:20:29.801Z,12.43
2019-03-16T18:25:37.995Z,13.93
2019-03-16T18:30:44.660Z,13.10
2019-03-16T18:35:50.670Z,13.90
2019-03-16T18:40:56.440Z,13.90
2019-03-16T18:46:03.957Z,12.63
2019-03-16T18:51:09.965Z,13.47
2019-03-16T18:56:15.899Z,12.77
2019-03-16T19:01:21.624Z,15.50
2019-03-16T19:06:29.611Z,13.13
2019-03-16T19:11:37.486Z,12.60
2019-03-16T19:16:44.178Z,13.57
2019-03-16T19:21:51.340Z,13.50
2019-03-16T19:26:58.162Z,12.77
2019-03-16T19:32:05.274Z,16.03
2019-03-16T19:37:12.169Z,11.60
2019-03-16T19:42:21.866Z,9.83
2019-03-16T19:47:29.874Z,8.57
2019-03-16T19:52:38.562Z,10.33
2019-03-16T19:57:46.311Z,7.90
2019-03-16T20:02:54.097Z,7.80
2019-03-16T20:08:00.039Z,6.93
2019-03-16T20:13:07.845Z,8.13
2019-03-16T20:18:14.317Z,9.10
2019-03-16T20:23:21.541Z,11.03
2019-03-16T20:28:29.643Z,8.27
2019-03-16T20:33:37.688Z,8.63
2019-03-16T20:38:44.393Z,9.47
2019-03-16T20:43:51.901Z,11.33
2019-03-16T20:49:03.483Z,8.97
2019-03-16T20:54:10.347Z,9.43
2019-03-16T20:59:19.232Z,8.70
2019-03-16T21:04:25.705Z,30.47
2019-03-16T21:09:31.576Z,16.00
2019-03-16T21:14:38.097Z,6.93
2019-03-16T21:19:45.978Z,6.63
2019-03-16T21:24:53.478Z,5.63
2019-03-16T21:29:59.319Z,4.87
2019-03-16T21:35:07.511Z,4.37
2019-03-16T21:40:14.831Z,4.57
2019-03-16T21:45:20.781Z,4.20
2019-03-16T21:50:31.442Z,5.93
2019-03-16T21:55:38.604Z,4.47
2019-03-16T22:00:45.001Z,4.97
2019-03-16T22:05:52.214Z,4.77
2019-03-16T22:10:57.879Z,3.47
2019-03-16T22:16:04.364Z,3.70
2019-03-16T22:21:11.385Z,3.80
2019-03-16T22:26:17.028Z,4.67
2019-03-16T22:31:22.583Z,8.33
2019-03-16T22:36:28.831Z,4.87
2019-03-16T22:41:34.496Z,3.57
2019-03-16T22:46:40.765Z,3.57
2019-03-16T22:51:46.498Z,3.67
2019-03-16T22:56:52.904Z,4.40
2019-03-16T23:01:59.104Z,4.33
2019-03-16T23:07:05.579Z,3.20
2019-03-16T23:12:12.567Z,5.27
2019-03-16T23:17:19.739Z,5.50
2019-03-16T23:22:27.615Z,4.17
2019-03-16T23:27:34.280Z,3.93
2019-03-16T23:32:40.594Z,3.67
2019-03-16T23:37:46.626Z,6.33
2019-03-16T23:42:53.113Z,4.60
2019-03-16T23:48:00.828Z,3.80
2019-03-16T23:53:08.047Z,7.03
2019-03-16T23:58:15.343Z,5.73
